sensor_id;sensor_type;location;lat;lon;timestamp;P1;durP1;ratioP1;P2;durP2;ratioP2
13712;SDS011;6928;50.546;7.120;2023-08-17T00:00:54;1.00;;;0.90;;
13712;SDS011;6928;50.546;7.120;2023-08-17T00:03:21;1.10;;;1.00;;
13712;SDS011;6928;50.546;7.120;2023-08-17T00:05:48;2.83;;;1.60;;
13712;SDS011;6928;50.546;7.120;2023-08-17T00:08:15;2.63;;;2.10;;
13712;SDS011;6928;50.546;7.120;2023-08-17T00:10:42;3.15;;;2.25;;
13712;SDS011;6928;50.546;7.120;2023-08-17T00:13:10;2.33;;;2.13;;
13712;SDS011;6928;50.546;7.120;2023-08-17T00:15:39;2.58;;;2.38;;
13712;SDS011;6928;50.546;7.120;2023-08-17T00:18:06;3.90;;;2.30;;
13712;SDS011;6928;50.546;7.120;2023-08-17T00:20:36;6.70;;;3.50;;
13712;SDS011;6928;50.546;7.120;2023-08-17T00:23:06;5.25;;;3.53;;
13712;SDS011;6928;50.546;7.120;2023-08-17T00:25:33;5.45;;;4.32;;
13712;SDS011;6928;50.546;7.120;2023-08-17T00:28:02;7.85;;;4.57;;
13712;SDS011;6928;50.546;7.120;2023-08-17T00:30:31;6.43;;;4.63;;
13712;SDS011;6928;50.546;7.120;2023-08-17T00:33:01;6.10;;;4.55;;
13712;SDS011;6928;50.546;7.120;2023-08-17T00:35:28;8.20;;;5.38;;
13712;SDS011;6928;50.546;7.120;2023-08-17T00:37:54;10.23;;;6.07;;
13712;SDS011;6928;50.546;7.120;2023-08-17T00:40:21;10.85;;;5.60;;
13712;SDS011;6928;50.546;7.120;2023-08-17T00:42:48;7.47;;;5.35;;
13712;SDS011;6928;50.546;7.120;2023-08-17T00:45:15;12.48;;;5.45;;
13712;SDS011;6928;50.546;7.120;2023-08-17T00:47:44;9.10;;;6.00;;
13712;SDS011;6928;50.546;7.120;2023-08-17T00:50:12;7.63;;;4.63;;
13712;SDS011;6928;50.546;7.120;2023-08-17T00:52:41;9.50;;;5.88;;
13712;SDS011;6928;50.546;7.120;2023-08-17T00:55:09;10.20;;;5.88;;
13712;SDS011;6928;50.546;7.120;2023-08-17T00:57:37;10.10;;;6.13;;
13712;SDS011;6928;50.546;7.120;2023-08-17T01:00:06;9.18;;;5.82;;
13712;SDS011;6928;50.546;7.120;2023-08-17T01:02:34;13.55;;;6.50;;
13712;SDS011;6928;50.546;7.120;2023-08-17T01:05:04;12.50;;;6.30;;
13712;SDS011;6928;50.546;7.120;2023-08-17T01:07:32;14.00;;;6.70;;
13712;SDS011;6928;50.546;7.120;2023-08-17T01:09:58;10.82;;;5.88;;
13712;SDS011;6928;50.546;7.120;2023-08-17T01:12:28;11.90;;;6.15;;
13712;SDS011;6928;50.546;7.120;2023-08-17T01:14:59;6.85;;;4.55;;
13712;SDS011;6928;50.546;7.120;2023-08-17T01:17:33;11.35;;;5.70;;
13712;SDS011;6928;50.546;7.120;2023-08-17T01:20:05;14.38;;;5.72;;
13712;SDS011;6928;50.546;7.120;2023-08-17T01:22:37;9.93;;;5.85;;
13712;SDS011;6928;50.546;7.120;2023-08-17T01:25:08;8.88;;;6.20;;
13712;SDS011;6928;50.546;7.120;2023-08-17T01:27:36;11.27;;;6.65;;
13712;SDS011;6928;50.546;7.120;2023-08-17T01:30:07;9.00;;;5.90;;
13712;SDS011;6928;50.546;7.120;2023-08-17T01:32:36;8.00;;;5.97;;
13712;SDS011;6928;50.546;7.120;2023-08-17T01:35:09;8.18;;;5.32;;
13712;SDS011;6928;50.546;7.120;2023-08-17T01:37:44;10.02;;;5.78;;
13712;SDS011;6928;50.546;7.120;2023-08-17T01:40:13;7.10;;;5.07;;
13712;SDS011;6928;50.546;7.120;2023-08-17T01:42:41;10.07;;;5.03;;
13712;SDS011;6928;50.546;7.120;2023-08-17T01:45:09;12.07;;;5.63;;
13712;SDS011;6928;50.546;7.120;2023-08-17T01:47:37;9.18;;;5.88;;
13712;SDS011;6928;50.546;7.120;2023-08-17T01:50:04;7.57;;;5.60;;
13712;SDS011;6928;50.546;7.120;2023-08-17T01:52:32;8.35;;;6.13;;
13712;SDS011;6928;50.546;7.120;2023-08-17T01:54:58;9.80;;;5.72;;
13712;SDS011;6928;50.546;7.120;2023-08-17T01:57:27;7.68;;;5.47;;
13712;SDS011;6928;50.546;7.120;2023-08-17T01:59:54;9.63;;;5.70;;
13712;SDS011;6928;50.546;7.120;2023-08-17T02:02:20;12.25;;;5.85;;
13712;SDS011;6928;50.546;7.120;2023-08-17T02:04:47;10.18;;;6.20;;
13712;SDS011;6928;50.546;7.120;2023-08-17T02:07:14;8.75;;;5.43;;
13712;SDS011;6928;50.546;7.120;2023-08-17T02:09:41;11.57;;;6.25;;
13712;SDS011;6928;50.546;7.120;2023-08-17T02:12:08;8.65;;;5.13;;
13712;SDS011;6928;50.546;7.120;2023-08-17T02:14:36;13.90;;;6.63;;
13712;SDS011;6928;50.546;7.120;2023-08-17T02:17:02;9.70;;;5.13;;
13712;SDS011;6928;50.546;7.120;2023-08-17T02:19:30;10.50;;;5.43;;
13712;SDS011;6928;50.546;7.120;2023-08-17T02:21:57;8.20;;;5.68;;
13712;SDS011;6928;50.546;7.120;2023-08-17T02:24:24;11.65;;;6.10;;
13712;SDS011;6928;50.546;7.120;2023-08-17T02:26:51;14.55;;;5.88;;
13712;SDS011;6928;50.546;7.120;2023-08-17T02:29:18;10.07;;;5.47;;
13712;SDS011;6928;50.546;7.120;2023-08-17T02:31:46;9.35;;;6.00;;
13712;SDS011;6928;50.546;7.120;2023-08-17T02:34:13;13.40;;;6.47;;
13712;SDS011;6928;50.546;7.120;2023-08-17T02:36:40;10.45;;;5.57;;
13712;SDS011;6928;50.546;7.120;2023-08-17T02:39:07;11.43;;;5.97;;
13712;SDS011;6928;50.546;7.120;2023-08-17T02:41:34;14.43;;;6.45;;
13712;SDS011;6928;50.546;7.120;2023-08-17T02:44:01;10.85;;;6.35;;
13712;SDS011;6928;50.546;7.120;2023-08-17T02:46:28;9.23;;;5.93;;
13712;SDS011;6928;50.546;7.120;2023-08-17T02:48:56;11.07;;;5.85;;
13712;SDS011;6928;50.546;7.120;2023-08-17T02:51:23;11.63;;;6.10;;
13712;SDS011;6928;50.546;7.120;2023-08-17T02:53:50;14.52;;;6.85;;
13712;SDS011;6928;50.546;7.120;2023-08-17T02:56:17;16.00;;;6.35;;
13712;SDS011;6928;50.546;7.120;2023-08-17T02:58:43;11.95;;;6.25;;
13712;SDS011;6928;50.546;7.120;2023-08-17T03:01:10;12.52;;;7.15;;
13712;SDS011;6928;50.546;7.120;2023-08-17T03:03:37;13.68;;;6.80;;
13712;SDS011;6928;50.546;7.120;2023-08-17T03:06:05;16.33;;;7.13;;
13712;SDS011;6928;50.546;7.120;2023-08-17T03:08:33;14.93;;;7.47;;
13712;SDS011;6928;50.546;7.120;2023-08-17T03:11:00;10.90;;;6.75;;
13712;SDS011;6928;50.546;7.120;2023-08-17T03:13:27;11.25;;;5.95;;
13712;SDS011;6928;50.546;7.120;2023-08-17T03:15:54;13.48;;;7.18;;
13712;SDS011;6928;50.546;7.120;2023-08-17T03:18:20;14.52;;;7.28;;
13712;SDS011;6928;50.546;7.120;2023-08-17T03:20:47;18.73;;;7.30;;
13712;SDS011;6928;50.546;7.120;2023-08-17T03:23:15;19.67;;;7.93;;
13712;SDS011;6928;50.546;7.120;2023-08-17T03:25:42;19.13;;;7.00;;
13712;SDS011;6928;50.546;7.120;2023-08-17T03:28:10;13.23;;;5.90;;
13712;SDS011;6928;50.546;7.120;2023-08-17T03:30:37;14.75;;;6.50;;
13712;SDS011;6928;50.546;7.120;2023-08-17T03:33:04;12.07;;;7.13;;
13712;SDS011;6928;50.546;7.120;2023-08-17T03:35:31;19.48;;;7.65;;
13712;SDS011;6928;50.546;7.120;2023-08-17T03:37:58;12.27;;;6.28;;
13712;SDS011;6928;50.546;7.120;2023-08-17T03:40:26;11.63;;;6.22;;
13712;SDS011;6928;50.546;7.120;2023-08-17T03:42:52;17.35;;;7.07;;
13712;SDS011;6928;50.546;7.120;2023-08-17T03:45:19;12.98;;;6.13;;
13712;SDS011;6928;50.546;7.120;2023-08-17T03:47:46;12.85;;;6.93;;
13712;SDS011;6928;50.546;7.120;2023-08-17T03:50:13;11.02;;;6.40;;
13712;SDS011;6928;50.546;7.120;2023-08-17T03:52:39;17.02;;;6.70;;
13712;SDS011;6928;50.546;7.120;2023-08-17T03:55:06;15.40;;;7.10;;
13712;SDS011;6928;50.546;7.120;2023-08-17T03:57:35;11.73;;;6.30;;
13712;SDS011;6928;50.546;7.120;2023-08-17T04:00:01;12.77;;;5.75;;
13712;SDS011;6928;50.546;7.120;2023-08-17T04:02:30;11.70;;;5.97;;
13712;SDS011;6928;50.546;7.120;2023-08-17T04:04:57;11.02;;;5.82;;
13712;SDS011;6928;50.546;7.120;2023-08-17T04:07:24;12.50;;;6.18;;
13712;SDS011;6928;50.546;7.120;2023-08-17T04:09:50;13.55;;;5.90;;
13712;SDS011;6928;50.546;7.120;2023-08-17T04:12:17;11.38;;;6.75;;
13712;SDS011;6928;50.546;7.120;2023-08-17T04:14:45;13.52;;;6.90;;
13712;SDS011;6928;50.546;7.120;2023-08-17T04:17:12;15.88;;;6.55;;
13712;SDS011;6928;50.546;7.120;2023-08-17T04:19:39;14.35;;;6.38;;
13712;SDS011;6928;50.546;7.120;2023-08-17T04:22:06;8.40;;;5.45;;
13712;SDS011;6928;50.546;7.120;2023-08-17T04:24:32;12.05;;;6.47;;
13712;SDS011;6928;50.546;7.120;2023-08-17T04:26:59;16.33;;;6.25;;
13712;SDS011;6928;50.546;7.120;2023-08-17T04:29:26;18.63;;;6.32;;
13712;SDS011;6928;50.546;7.120;2023-08-17T04:31:54;11.00;;;6.25;;
13712;SDS011;6928;50.546;7.120;2023-08-17T04:34:21;14.18;;;6.97;;
13712;SDS011;6928;50.546;7.120;2023-08-17T04:36:48;8.00;;;5.13;;
13712;SDS011;6928;50.546;7.120;2023-08-17T04:39:15;15.55;;;5.72;;
13712;SDS011;6928;50.546;7.120;2023-08-17T04:41:42;13.45;;;6.95;;
13712;SDS011;6928;50.546;7.120;2023-08-17T04:44:09;11.25;;;6.30;;
13712;SDS011;6928;50.546;7.120;2023-08-17T04:46:36;14.10;;;6.70;;
13712;SDS011;6928;50.546;7.120;2023-08-17T04:49:04;20.02;;;6.95;;
13712;SDS011;6928;50.546;7.120;2023-08-17T04:51:30;15.70;;;6.28;;
13712;SDS011;6928;50.546;7.120;2023-08-17T04:53:58;13.65;;;6.47;;
13712;SDS011;6928;50.546;7.120;2023-08-17T04:56:24;10.98;;;5.68;;
13712;SDS011;6928;50.546;7.120;2023-08-17T04:58:53;15.90;;;7.43;;
13712;SDS011;6928;50.546;7.120;2023-08-17T05:01:19;13.50;;;6.10;;
13712;SDS011;6928;50.546;7.120;2023-08-17T05:03:46;13.18;;;6.15;;
13712;SDS011;6928;50.546;7.120;2023-08-17T05:06:14;16.63;;;6.63;;
13712;SDS011;6928;50.546;7.120;2023-08-17T05:08:41;11.95;;;6.22;;
13712;SDS011;6928;50.546;7.120;2023-08-17T05:11:08;11.65;;;6.10;;
13712;SDS011;6928;50.546;7.120;2023-08-17T05:13:35;14.10;;;6.55;;
13712;SDS011;6928;50.546;7.120;2023-08-17T05:16:02;11.80;;;6.20;;
13712;SDS011;6928;50.546;7.120;2023-08-17T05:18:29;19.98;;;6.57;;
13712;SDS011;6928;50.546;7.120;2023-08-17T05:20:55;12.20;;;6.38;;
13712;SDS011;6928;50.546;7.120;2023-08-17T05:23:24;17.88;;;5.88;;
13712;SDS011;6928;50.546;7.120;2023-08-17T05:25:50;11.98;;;6.05;;
13712;SDS011;6928;50.546;7.120;2023-08-17T05:28:18;11.30;;;6.15;;
13712;SDS011;6928;50.546;7.120;2023-08-17T05:30:45;12.75;;;6.47;;
13712;SDS011;6928;50.546;7.120;2023-08-17T05:33:12;14.98;;;5.82;;
13712;SDS011;6928;50.546;7.120;2023-08-17T05:35:39;13.10;;;6.53;;
13712;SDS011;6928;50.546;7.120;2023-08-17T05:38:07;16.48;;;5.63;;
13712;SDS011;6928;50.546;7.120;2023-08-17T05:40:36;15.90;;;6.05;;
13712;SDS011;6928;50.546;7.120;2023-08-17T05:43:03;15.70;;;6.57;;
13712;SDS011;6928;50.546;7.120;2023-08-17T05:45:30;16.90;;;7.10;;
13712;SDS011;6928;50.546;7.120;2023-08-17T05:47:56;12.50;;;5.80;;
13712;SDS011;6928;50.546;7.120;2023-08-17T05:50:23;17.85;;;7.03;;
13712;SDS011;6928;50.546;7.120;2023-08-17T05:52:50;14.77;;;6.63;;
13712;SDS011;6928;50.546;7.120;2023-08-17T05:55:17;18.35;;;7.32;;
13712;SDS011;6928;50.546;7.120;2023-08-17T05:57:45;16.08;;;7.82;;
13712;SDS011;6928;50.546;7.120;2023-08-17T06:00:12;24.30;;;7.28;;
13712;SDS011;6928;50.546;7.120;2023-08-17T06:02:40;19.55;;;7.45;;
13712;SDS011;6928;50.546;7.120;2023-08-17T06:05:07;20.52;;;8.13;;
13712;SDS011;6928;50.546;7.120;2023-08-17T06:07:34;18.23;;;7.88;;
13712;SDS011;6928;50.546;7.120;2023-08-17T06:10:03;20.50;;;6.65;;
13712;SDS011;6928;50.546;7.120;2023-08-17T06:12:32;16.02;;;7.25;;
13712;SDS011;6928;50.546;7.120;2023-08-17T06:15:01;15.38;;;6.18;;
13712;SDS011;6928;50.546;7.120;2023-08-17T06:17:28;12.02;;;6.18;;
13712;SDS011;6928;50.546;7.120;2023-08-17T06:19:55;15.15;;;6.00;;
13712;SDS011;6928;50.546;7.120;2023-08-17T06:22:22;16.95;;;7.28;;
13712;SDS011;6928;50.546;7.120;2023-08-17T06:24:49;15.80;;;6.82;;
13712;SDS011;6928;50.546;7.120;2023-08-17T06:27:15;16.95;;;6.80;;
13712;SDS011;6928;50.546;7.120;2023-08-17T06:29:42;17.75;;;6.28;;
13712;SDS011;6928;50.546;7.120;2023-08-17T06:32:11;20.17;;;7.28;;
13712;SDS011;6928;50.546;7.120;2023-08-17T06:34:38;12.77;;;5.80;;
13712;SDS011;6928;50.546;7.120;2023-08-17T06:37:05;13.85;;;5.78;;
13712;SDS011;6928;50.546;7.120;2023-08-17T06:39:31;14.15;;;5.82;;
13712;SDS011;6928;50.546;7.120;2023-08-17T06:41:58;19.98;;;5.93;;
13712;SDS011;6928;50.546;7.120;2023-08-17T06:44:25;15.50;;;5.88;;
13712;SDS011;6928;50.546;7.120;2023-08-17T06:46:52;13.55;;;6.15;;
13712;SDS011;6928;50.546;7.120;2023-08-17T06:49:20;8.95;;;5.55;;
13712;SDS011;6928;50.546;7.120;2023-08-17T06:51:46;8.95;;;5.53;;
13712;SDS011;6928;50.546;7.120;2023-08-17T06:54:13;12.48;;;6.20;;
13712;SDS011;6928;50.546;7.120;2023-08-17T06:56:40;12.32;;;6.00;;
13712;SDS011;6928;50.546;7.120;2023-08-17T06:59:07;12.68;;;5.80;;
13712;SDS011;6928;50.546;7.120;2023-08-17T07:01:34;10.88;;;5.28;;
13712;SDS011;6928;50.546;7.120;2023-08-17T07:04:01;19.17;;;6.97;;
13712;SDS011;6928;50.546;7.120;2023-08-17T07:06:30;11.68;;;5.10;;
13712;SDS011;6928;50.546;7.120;2023-08-17T07:08:57;14.98;;;6.10;;
13712;SDS011;6928;50.546;7.120;2023-08-17T07:11:24;14.65;;;5.15;;
13712;SDS011;6928;50.546;7.120;2023-08-17T07:13:51;13.68;;;6.28;;
13712;SDS011;6928;50.546;7.120;2023-08-17T07:16:18;19.92;;;6.35;;
13712;SDS011;6928;50.546;7.120;2023-08-17T07:18:45;10.02;;;5.10;;
13712;SDS011;6928;50.546;7.120;2023-08-17T07:21:12;8.18;;;4.38;;
13712;SDS011;6928;50.546;7.120;2023-08-17T07:23:44;13.27;;;4.82;;
13712;SDS011;6928;50.546;7.120;2023-08-17T07:26:12;8.00;;;4.35;;
13712;SDS011;6928;50.546;7.120;2023-08-17T07:28:39;12.00;;;5.03;;
13712;SDS011;6928;50.546;7.120;2023-08-17T07:31:06;15.27;;;5.30;;
13712;SDS011;6928;50.546;7.120;2023-08-17T07:33:32;12.88;;;4.97;;
13712;SDS011;6928;50.546;7.120;2023-08-17T07:35:59;11.77;;;5.38;;
13712;SDS011;6928;50.546;7.120;2023-08-17T07:38:26;7.95;;;4.40;;
13712;SDS011;6928;50.546;7.120;2023-08-17T07:40:55;13.35;;;4.97;;
13712;SDS011;6928;50.546;7.120;2023-08-17T07:43:22;13.82;;;5.28;;
13712;SDS011;6928;50.546;7.120;2023-08-17T07:45:52;13.38;;;5.95;;
13712;SDS011;6928;50.546;7.120;2023-08-17T07:48:20;13.50;;;6.00;;
13712;SDS011;6928;50.546;7.120;2023-08-17T07:50:48;9.35;;;5.25;;
13712;SDS011;6928;50.546;7.120;2023-08-17T07:53:16;10.88;;;4.95;;
13712;SDS011;6928;50.546;7.120;2023-08-17T07:55:43;10.63;;;5.13;;
13712;SDS011;6928;50.546;7.120;2023-08-17T07:58:11;10.95;;;4.88;;
13712;SDS011;6928;50.546;7.120;2023-08-17T08:00:39;9.43;;;4.50;;
13712;SDS011;6928;50.546;7.120;2023-08-17T08:03:06;12.93;;;5.57;;
13712;SDS011;6928;50.546;7.120;2023-08-17T08:05:32;11.30;;;4.90;;
13712;SDS011;6928;50.546;7.120;2023-08-17T08:07:59;12.40;;;5.97;;
13712;SDS011;6928;50.546;7.120;2023-08-17T08:10:26;12.55;;;6.00;;
13712;SDS011;6928;50.546;7.120;2023-08-17T08:12:53;9.38;;;5.13;;
13712;SDS011;6928;50.546;7.120;2023-08-17T08:15:22;10.68;;;5.65;;
13712;SDS011;6928;50.546;7.120;2023-08-17T08:17:49;8.38;;;5.05;;
13712;SDS011;6928;50.546;7.120;2023-08-17T08:20:16;10.00;;;5.50;;
13712;SDS011;6928;50.546;7.120;2023-08-17T08:22:43;10.43;;;5.47;;
13712;SDS011;6928;50.546;7.120;2023-08-17T08:25:10;9.85;;;4.90;;
13712;SDS011;6928;50.546;7.120;2023-08-17T08:27:37;11.15;;;5.47;;
13712;SDS011;6928;50.546;7.120;2023-08-17T08:30:05;12.13;;;6.43;;
13712;SDS011;6928;50.546;7.120;2023-08-17T08:32:34;10.30;;;5.40;;
13712;SDS011;6928;50.546;7.120;2023-08-17T08:35:01;13.73;;;5.55;;
13712;SDS011;6928;50.546;7.120;2023-08-17T08:37:29;7.90;;;4.85;;
13712;SDS011;6928;50.546;7.120;2023-08-17T08:39:55;12.55;;;5.25;;
13712;SDS011;6928;50.546;7.120;2023-08-17T08:42:23;9.07;;;5.38;;
13712;SDS011;6928;50.546;7.120;2023-08-17T08:44:51;6.88;;;4.03;;
13712;SDS011;6928;50.546;7.120;2023-08-17T08:47:18;9.60;;;4.72;;
13712;SDS011;6928;50.546;7.120;2023-08-17T08:49:49;9.15;;;4.50;;
13712;SDS011;6928;50.546;7.120;2023-08-17T08:52:26;12.52;;;4.13;;
13712;SDS011;6928;50.546;7.120;2023-08-17T08:55:03;9.50;;;4.68;;
13712;SDS011;6928;50.546;7.120;2023-08-17T08:57:37;11.15;;;4.47;;
13712;SDS011;6928;50.546;7.120;2023-08-17T09:00:06;8.65;;;5.13;;
13712;SDS011;6928;50.546;7.120;2023-08-17T09:02:34;12.15;;;4.95;;
13712;SDS011;6928;50.546;7.120;2023-08-17T09:05:04;11.25;;;4.95;;
13712;SDS011;6928;50.546;7.120;2023-08-17T09:07:32;6.72;;;4.43;;
13712;SDS011;6928;50.546;7.120;2023-08-17T09:10:00;13.13;;;5.60;;
13712;SDS011;6928;50.546;7.120;2023-08-17T09:12:28;8.75;;;4.90;;
13712;SDS011;6928;50.546;7.120;2023-08-17T09:14:56;9.13;;;5.22;;
13712;SDS011;6928;50.546;7.120;2023-08-17T09:17:23;6.30;;;4.13;;
13712;SDS011;6928;50.546;7.120;2023-08-17T09:19:50;8.30;;;4.57;;
13712;SDS011;6928;50.546;7.120;2023-08-17T09:22:23;10.57;;;6.13;;
13712;SDS011;6928;50.546;7.120;2023-08-17T09:24:50;13.65;;;5.05;;
13712;SDS011;6928;50.546;7.120;2023-08-17T09:27:17;9.15;;;4.38;;
13712;SDS011;6928;50.546;7.120;2023-08-17T09:29:44;9.93;;;4.97;;
13712;SDS011;6928;50.546;7.120;2023-08-17T09:32:11;10.02;;;5.00;;
13712;SDS011;6928;50.546;7.120;2023-08-17T09:34:41;8.60;;;4.40;;
13712;SDS011;6928;50.546;7.120;2023-08-17T09:37:08;9.82;;;6.05;;
13712;SDS011;6928;50.546;7.120;2023-08-17T09:39:36;10.57;;;4.78;;
13712;SDS011;6928;50.546;7.120;2023-08-17T09:42:03;7.05;;;4.80;;
13712;SDS011;6928;50.546;7.120;2023-08-17T09:44:32;9.82;;;5.55;;
13712;SDS011;6928;50.546;7.120;2023-08-17T09:47:00;10.95;;;4.55;;
13712;SDS011;6928;50.546;7.120;2023-08-17T09:49:29;6.82;;;4.25;;
13712;SDS011;6928;50.546;7.120;2023-08-17T09:51:59;8.98;;;4.88;;
13712;SDS011;6928;50.546;7.120;2023-08-17T09:54:27;8.43;;;5.07;;
13712;SDS011;6928;50.546;7.120;2023-08-17T09:56:58;11.93;;;4.47;;
13712;SDS011;6928;50.546;7.120;2023-08-17T09:59:25;7.80;;;5.13;;
13712;SDS011;6928;50.546;7.120;2023-08-17T10:01:52;11.93;;;5.65;;
13712;SDS011;6928;50.546;7.120;2023-08-17T10:04:20;7.25;;;4.88;;
13712;SDS011;6928;50.546;7.120;2023-08-17T10:06:50;9.80;;;4.78;;
13712;SDS011;6928;50.546;7.120;2023-08-17T10:09:23;7.03;;;4.78;;
13712;SDS011;6928;50.546;7.120;2023-08-17T10:11:54;6.88;;;4.57;;
13712;SDS011;6928;50.546;7.120;2023-08-17T10:14:29;11.35;;;4.72;;
13712;SDS011;6928;50.546;7.120;2023-08-17T10:17:00;6.57;;;4.70;;
13712;SDS011;6928;50.546;7.120;2023-08-17T10:19:37;8.38;;;5.07;;
13712;SDS011;6928;50.546;7.120;2023-08-17T10:22:11;11.27;;;5.65;;
13712;SDS011;6928;50.546;7.120;2023-08-17T10:24:44;7.80;;;4.28;;
13712;SDS011;6928;50.546;7.120;2023-08-17T10:27:14;8.98;;;4.30;;
13712;SDS011;6928;50.546;7.120;2023-08-17T10:29:42;12.45;;;4.97;;
13712;SDS011;6928;50.546;7.120;2023-08-17T10:32:11;6.05;;;4.75;;
13712;SDS011;6928;50.546;7.120;2023-08-17T10:34:38;6.10;;;4.30;;
13712;SDS011;6928;50.546;7.120;2023-08-17T10:37:05;6.78;;;4.80;;
13712;SDS011;6928;50.546;7.120;2023-08-17T10:39:32;6.82;;;4.63;;
13712;SDS011;6928;50.546;7.120;2023-08-17T10:42:02;5.05;;;4.07;;
13712;SDS011;6928;50.546;7.120;2023-08-17T10:44:40;8.98;;;4.90;;
13712;SDS011;6928;50.546;7.120;2023-08-17T10:47:23;9.05;;;4.40;;
13712;SDS011;6928;50.546;7.120;2023-08-17T10:49:51;14.35;;;4.47;;
13712;SDS011;6928;50.546;7.120;2023-08-17T10:52:25;8.40;;;4.18;;
13712;SDS011;6928;50.546;7.120;2023-08-17T10:54:53;7.82;;;4.18;;
13712;SDS011;6928;50.546;7.120;2023-08-17T10:57:24;7.68;;;4.57;;
13712;SDS011;6928;50.546;7.120;2023-08-17T11:02:52;9.38;;;4.53;;
13712;SDS011;6928;50.546;7.120;2023-08-17T11:08:19;10.23;;;4.20;;
13712;SDS011;6928;50.546;7.120;2023-08-17T11:10:48;6.32;;;4.45;;
13712;SDS011;6928;50.546;7.120;2023-08-17T11:13:23;8.25;;;4.82;;
13712;SDS011;6928;50.546;7.120;2023-08-17T11:15:51;7.85;;;4.63;;
13712;SDS011;6928;50.546;7.120;2023-08-17T11:18:18;8.02;;;5.03;;
13712;SDS011;6928;50.546;7.120;2023-08-17T11:20:45;8.57;;;5.00;;
13712;SDS011;6928;50.546;7.120;2023-08-17T11:23:13;7.53;;;4.93;;
13712;SDS011;6928;50.546;7.120;2023-08-17T11:25:41;10.90;;;5.55;;
13712;SDS011;6928;50.546;7.120;2023-08-17T11:28:08;9.90;;;5.00;;
13712;SDS011;6928;50.546;7.120;2023-08-17T11:30:35;7.32;;;5.20;;
13712;SDS011;6928;50.546;7.120;2023-08-17T11:33:05;8.23;;;5.40;;
13712;SDS011;6928;50.546;7.120;2023-08-17T11:35:33;7.88;;;4.55;;
13712;SDS011;6928;50.546;7.120;2023-08-17T11:38:00;6.85;;;3.85;;
13712;SDS011;6928;50.546;7.120;2023-08-17T11:40:28;7.32;;;4.25;;
13712;SDS011;6928;50.546;7.120;2023-08-17T11:42:55;8.40;;;5.00;;
13712;SDS011;6928;50.546;7.120;2023-08-17T11:45:25;6.50;;;4.32;;
13712;SDS011;6928;50.546;7.120;2023-08-17T11:47:52;7.10;;;4.15;;
13712;SDS011;6928;50.546;7.120;2023-08-17T11:50:20;6.65;;;4.28;;
13712;SDS011;6928;50.546;7.120;2023-08-17T11:52:47;7.85;;;4.55;;
13712;SDS011;6928;50.546;7.120;2023-08-17T11:55:15;5.15;;;4.03;;
13712;SDS011;6928;50.546;7.120;2023-08-17T11:57:44;8.13;;;4.18;;
13712;SDS011;6928;50.546;7.120;2023-08-17T12:00:16;5.32;;;4.03;;
13712;SDS011;6928;50.546;7.120;2023-08-17T12:02:49;5.68;;;3.58;;
13712;SDS011;6928;50.546;7.120;2023-08-17T12:05:22;5.38;;;3.83;;
13712;SDS011;6928;50.546;7.120;2023-08-17T12:07:53;6.40;;;4.35;;
13712;SDS011;6928;50.546;7.120;2023-08-17T12:10:20;6.63;;;3.92;;
13712;SDS011;6928;50.546;7.120;2023-08-17T12:12:47;5.20;;;3.95;;
13712;SDS011;6928;50.546;7.120;2023-08-17T12:15:15;6.53;;;4.13;;
13712;SDS011;6928;50.546;7.120;2023-08-17T12:17:44;6.47;;;3.10;;
13712;SDS011;6928;50.546;7.120;2023-08-17T12:20:15;5.93;;;3.78;;
13712;SDS011;6928;50.546;7.120;2023-08-17T12:22:44;5.82;;;3.67;;
13712;SDS011;6928;50.546;7.120;2023-08-17T12:25:10;4.60;;;3.50;;
13712;SDS011;6928;50.546;7.120;2023-08-17T12:27:37;6.70;;;2.97;;
13712;SDS011;6928;50.546;7.120;2023-08-17T12:30:05;3.70;;;2.88;;
13712;SDS011;6928;50.546;7.120;2023-08-17T12:32:38;4.97;;;2.95;;
13712;SDS011;6928;50.546;7.120;2023-08-17T12:35:05;4.28;;;2.88;;
13712;SDS011;6928;50.546;7.120;2023-08-17T12:37:33;3.83;;;2.70;;
13712;SDS011;6928;50.546;7.120;2023-08-17T12:40:01;3.85;;;2.95;;
13712;SDS011;6928;50.546;7.120;2023-08-17T12:42:29;3.47;;;3.15;;
13712;SDS011;6928;50.546;7.120;2023-08-17T12:44:56;3.88;;;2.97;;
13712;SDS011;6928;50.546;7.120;2023-08-17T12:47:23;3.88;;;3.20;;
13712;SDS011;6928;50.546;7.120;2023-08-17T12:49:50;6.47;;;3.42;;
13712;SDS011;6928;50.546;7.120;2023-08-17T12:52:17;4.68;;;3.53;;
13712;SDS011;6928;50.546;7.120;2023-08-17T12:54:43;4.18;;;3.75;;
13712;SDS011;6928;50.546;7.120;2023-08-17T12:57:12;5.85;;;4.00;;
13712;SDS011;6928;50.546;7.120;2023-08-17T12:59:38;8.43;;;4.22;;
13712;SDS011;6928;50.546;7.120;2023-08-17T13:02:05;5.30;;;3.90;;
13712;SDS011;6928;50.546;7.120;2023-08-17T13:04:32;5.18;;;3.88;;
13712;SDS011;6928;50.546;7.120;2023-08-17T13:06:59;4.13;;;3.25;;
13712;SDS011;6928;50.546;7.120;2023-08-17T13:09:25;5.10;;;3.30;;
13712;SDS011;6928;50.546;7.120;2023-08-17T13:11:52;6.45;;;3.85;;
13712;SDS011;6928;50.546;7.120;2023-08-17T13:14:20;5.20;;;3.80;;
13712;SDS011;6928;50.546;7.120;2023-08-17T13:16:48;5.68;;;4.13;;
13712;SDS011;6928;50.546;7.120;2023-08-17T13:19:15;6.22;;;3.88;;
13712;SDS011;6928;50.546;7.120;2023-08-17T13:21:42;5.13;;;3.50;;
13712;SDS011;6928;50.546;7.120;2023-08-17T13:24:08;6.05;;;3.22;;
13712;SDS011;6928;50.546;7.120;2023-08-17T13:26:35;4.28;;;3.55;;
13712;SDS011;6928;50.546;7.120;2023-08-17T13:29:02;5.45;;;3.63;;
13712;SDS011;6928;50.546;7.120;2023-08-17T13:31:31;3.05;;;2.63;;
13712;SDS011;6928;50.546;7.120;2023-08-17T13:33:58;6.10;;;3.50;;
13712;SDS011;6928;50.546;7.120;2023-08-17T13:36:25;5.03;;;3.30;;
13712;SDS011;6928;50.546;7.120;2023-08-17T13:38:51;5.25;;;2.90;;
13712;SDS011;6928;50.546;7.120;2023-08-17T13:41:18;2.80;;;2.60;;
13712;SDS011;6928;50.546;7.120;2023-08-17T13:43:45;3.50;;;2.13;;
13712;SDS011;6928;50.546;7.120;2023-08-17T13:46:12;3.35;;;2.72;;
13712;SDS011;6928;50.546;7.120;2023-08-17T13:48:40;2.97;;;2.72;;
13712;SDS011;6928;50.546;7.120;2023-08-17T13:51:07;2.10;;;1.90;;
13712;SDS011;6928;50.546;7.120;2023-08-17T13:53:34;7.03;;;3.65;;
13712;SDS011;6928;50.546;7.120;2023-08-17T13:56:01;2.75;;;2.40;;
13712;SDS011;6928;50.546;7.120;2023-08-17T13:58:27;2.33;;;2.13;;
13712;SDS011;6928;50.546;7.120;2023-08-17T14:00:54;4.43;;;2.38;;
13712;SDS011;6928;50.546;7.120;2023-08-17T14:03:21;2.00;;;1.80;;
13712;SDS011;6928;50.546;7.120;2023-08-17T14:05:50;2.72;;;2.17;;
13712;SDS011;6928;50.546;7.120;2023-08-17T14:08:16;2.05;;;1.83;;
13712;SDS011;6928;50.546;7.120;2023-08-17T14:10:43;2.35;;;1.92;;
13712;SDS011;6928;50.546;7.120;2023-08-17T14:13:10;1.73;;;1.63;;
13712;SDS011;6928;50.546;7.120;2023-08-17T14:15:37;1.75;;;1.52;;
13712;SDS011;6928;50.546;7.120;2023-08-17T14:18:04;2.17;;;1.95;;
13712;SDS011;6928;50.546;7.120;2023-08-17T14:20:31;2.50;;;2.00;;
13712;SDS011;6928;50.546;7.120;2023-08-17T14:22:59;2.20;;;1.73;;
13712;SDS011;6928;50.546;7.120;2023-08-17T14:25:26;3.38;;;1.88;;
13712;SDS011;6928;50.546;7.120;2023-08-17T14:27:54;1.70;;;1.60;;
13712;SDS011;6928;50.546;7.120;2023-08-17T14:30:20;3.17;;;2.30;;
13712;SDS011;6928;50.546;7.120;2023-08-17T14:32:49;2.55;;;1.65;;
13712;SDS011;6928;50.546;7.120;2023-08-17T14:35:16;4.45;;;2.55;;
13712;SDS011;6928;50.546;7.120;2023-08-17T14:37:43;1.30;;;1.25;;
13712;SDS011;6928;50.546;7.120;2023-08-17T14:40:11;1.95;;;1.75;;
13712;SDS011;6928;50.546;7.120;2023-08-17T14:42:38;1.80;;;1.40;;
13712;SDS011;6928;50.546;7.120;2023-08-17T14:45:05;1.92;;;1.83;;
13712;SDS011;6928;50.546;7.120;2023-08-17T14:47:33;9.43;;;1.60;;
13712;SDS011;6928;50.546;7.120;2023-08-17T14:50:00;2.88;;;2.13;;
13712;SDS011;6928;50.546;7.120;2023-08-17T14:52:27;1.98;;;1.88;;
13712;SDS011;6928;50.546;7.120;2023-08-17T14:54:54;2.17;;;1.90;;
13712;SDS011;6928;50.546;7.120;2023-08-17T14:57:22;4.05;;;1.33;;
13712;SDS011;6928;50.546;7.120;2023-08-17T14:59:49;2.33;;;1.58;;
13712;SDS011;6928;50.546;7.120;2023-08-17T15:02:16;2.45;;;2.10;;
13712;SDS011;6928;50.546;7.120;2023-08-17T15:04:43;2.00;;;1.80;;